createdAt,value
2017-11-07T00:00:03.558Z,101388.50
2017-11-07T00:02:34.880Z,101391.58
2017-11-07T00:05:06.543Z,101387.73
2017-11-07T00:07:37.885Z,101386.83
2017-11-07T00:10:09.868Z,101385.56
2017-11-07T00:12:41.497Z,101382.99
2017-11-07T00:15:12.788Z,101390.44
2017-11-07T00:17:44.163Z,101387.36
2017-11-07T00:20:15.749Z,101389.56
2017-11-07T00:22:47.044Z,101389.53
2017-11-07T00:25:19.648Z,101391.70
2017-11-07T00:27:50.987Z,101396.05
2017-11-07T00:30:22.337Z,101390.44
2017-11-07T00:32:53.846Z,101393.94
2017-11-07T00:35:25.117Z,101393.03
2017-11-07T00:37:57.891Z,101392.23
2017-11-07T00:40:29.280Z,101380.55
2017-11-07T00:43:00.964Z,101384.05
2017-11-07T00:45:32.297Z,101378.03
2017-11-07T00:48:04.720Z,101376.77
2017-11-07T00:50:36.432Z,101378.06
2017-11-07T00:53:07.725Z,101371.59
2017-11-07T00:55:39.022Z,101374.22
2017-11-07T00:58:10.643Z,101374.22
2017-11-07T01:00:41.952Z,101375.95
2017-11-07T01:03:13.239Z,101369.91
2017-11-07T01:05:45.051Z,101368.67
2017-11-07T01:08:16.337Z,101372.95
2017-11-07T01:10:47.757Z,101366.84
2017-11-07T01:13:19.401Z,101364.30
2017-11-07T01:15:50.819Z,101361.30
2017-11-07T01:18:22.149Z,101354.77
2017-11-07T01:20:54.501Z,101354.33
2017-11-07T01:23:25.917Z,101348.72
2017-11-07T01:25:57.356Z,101345.68
2017-11-07T01:28:29.114Z,101346.17
2017-11-07T01:31:00.431Z,101343.58
2017-11-07T01:33:31.729Z,101334.50
2017-11-07T01:36:04.476Z,101330.56
2017-11-07T01:38:35.828Z,101323.66
2017-11-07T01:41:07.417Z,101324.98
2017-11-07T01:43:38.763Z,101314.98
2017-11-07T01:46:10.090Z,101316.34
2017-11-07T01:48:41.360Z,101318.94
2017-11-07T01:51:13.030Z,101322.91
2017-11-07T01:53:44.617Z,101320.34
2017-11-07T01:56:15.939Z,101316.44
2017-11-07T01:58:47.709Z,101315.63
2017-11-07T02:01:19.076Z,101314.76
2017-11-07T02:03:50.701Z,101314.77
2017-11-07T02:06:22.615Z,101315.20
2017-11-07T02:08:54.082Z,101306.98
2017-11-07T02:11:25.608Z,101310.86
2017-11-07T02:13:57.264Z,101309.96
2017-11-07T02:16:28.662Z,101309.44
2017-11-07T02:19:00.053Z,101308.94
2017-11-07T02:21:31.739Z,101307.11
2017-11-07T02:24:04.972Z,101310.09
2017-11-07T02:26:36.366Z,101307.32
2017-11-07T02:29:08.127Z,101310.19
2017-11-07T02:31:39.500Z,101306.52
2017-11-07T02:34:10.848Z,101307.78
2017-11-07T02:36:42.785Z,101303.33
2017-11-07T02:39:14.882Z,101292.41
2017-11-07T02:41:46.337Z,101290.59
2017-11-07T02:44:18.137Z,101286.26
2017-11-07T02:46:49.489Z,101275.48
2017-11-07T02:49:20.845Z,101278.48
2017-11-07T02:51:52.545Z,101267.98
2017-11-07T02:54:23.830Z,101272.33
2017-11-07T02:56:55.167Z,101266.29
2017-11-07T02:59:26.530Z,101258.83
2017-11-07T03:01:58.157Z,101260.89
2017-11-07T03:04:29.451Z,101264.83
2017-11-07T03:07:00.916Z,101253.51
2017-11-07T03:09:32.548Z,101253.03
2017-11-07T03:12:05.125Z,101256.90
2017-11-07T03:14:36.766Z,101247.78
2017-11-07T03:17:08.897Z,101239.53
2017-11-07T03:19:40.187Z,101243.05
2017-11-07T03:22:12.028Z,101246.48
2017-11-07T03:24:43.337Z,101243.00
2017-11-07T03:27:15.026Z,101238.70
2017-11-07T03:29:46.369Z,101238.31
2017-11-07T03:32:17.694Z,101231.72
2017-11-07T03:34:49.049Z,101233.02
2017-11-07T03:37:20.362Z,101232.23
2017-11-07T03:39:52.008Z,101232.23
2017-11-07T03:42:23.289Z,101240.00
2017-11-07T03:44:54.601Z,101241.31
2017-11-07T03:47:26.599Z,101231.80
2017-11-07T03:49:58.259Z,101234.83
2017-11-07T03:52:29.880Z,101233.49
2017-11-07T03:55:01.441Z,101226.20
2017-11-07T03:57:32.828Z,101225.76
2017-11-07T04:00:05.695Z,101220.90
2017-11-07T04:02:37.221Z,101225.64
2017-11-07T04:05:08.498Z,101215.17
2017-11-07T04:07:40.298Z,101213.39
2017-11-07T04:10:11.604Z,101219.48
2017-11-07T04:12:42.911Z,101214.22
2017-11-07T04:15:14.404Z,101212.92
2017-11-07T04:17:46.193Z,101213.67
2017-11-07T04:20:17.484Z,101220.92
2017-11-07T04:22:49.023Z,101210.06
2017-11-07T04:25:20.314Z,101209.58
2017-11-07T04:27:53.120Z,101206.50
2017-11-07T04:30:24.408Z,101205.59
2017-11-07T04:32:56.618Z,101199.13
2017-11-07T04:35:28.449Z,101201.69
2017-11-07T04:37:59.837Z,101198.59
2017-11-07T04:40:31.131Z,101198.12
2017-11-07T04:43:03.838Z,101199.77
2017-11-07T04:45:35.137Z,101195.86
2017-11-07T04:48:06.544Z,101196.29
2017-11-07T04:50:38.294Z,101188.48
2017-11-07T04:53:09.649Z,101188.03
2017-11-07T04:55:40.932Z,101187.64
2017-11-07T04:58:12.649Z,101191.08
2017-11-07T05:00:43.964Z,101187.25
2017-11-07T05:03:15.560Z,101182.91
2017-11-07T05:05:46.938Z,101179.91
2017-11-07T05:08:18.257Z,101177.27
2017-11-07T05:10:50.074Z,101179.87
2017-11-07T05:13:21.389Z,101178.97
2017-11-07T05:15:52.684Z,101172.44
2017-11-07T05:18:23.981Z,101171.14
2017-11-07T05:20:56.471Z,101161.49
2017-11-07T05:23:27.772Z,101164.19
2017-11-07T05:25:59.536Z,101155.50
2017-11-07T05:28:30.840Z,101160.23
2017-11-07T05:31:03.592Z,101158.84
2017-11-07T05:33:35.307Z,101157.88
2017-11-07T05:36:06.620Z,101159.09
2017-11-07T05:38:37.944Z,101154.78
2017-11-07T05:41:10.584Z,101154.31
2017-11-07T05:43:42.045Z,101151.31
2017-11-07T05:46:13.442Z,101155.28
2017-11-07T05:48:45.215Z,101155.66
2017-11-07T05:51:16.619Z,101152.19
2017-11-07T05:53:47.998Z,101157.02
2017-11-07T05:56:19.699Z,101145.72
2017-11-07T05:58:51.681Z,101144.89
2017-11-07T06:01:23.392Z,101147.02
2017-11-07T06:03:54.713Z,101143.98
2017-11-07T06:06:26.033Z,101143.98
2017-11-07T06:08:58.492Z,101140.89
2017-11-07T06:11:29.832Z,101137.42
2017-11-07T06:14:01.563Z,101139.63
2017-11-07T06:16:32.963Z,101139.63
2017-11-07T06:19:04.764Z,101133.89
2017-11-07T06:21:36.395Z,101138.67
2017-11-07T06:24:07.850Z,101143.02
2017-11-07T06:26:39.256Z,101140.41
2017-11-07T06:29:10.882Z,101140.36
2017-11-07T06:31:42.236Z,101142.96
2017-11-07T06:34:13.852Z,101144.12
2017-11-07T06:36:45.128Z,101139.64
2017-11-07T06:39:16.435Z,101139.97
2017-11-07T06:41:48.082Z,101133.64
2017-11-07T06:44:19.667Z,101131.41
2017-11-07T06:46:51.146Z,101124.50
2017-11-07T06:49:22.759Z,101134.07
2017-11-07T06:51:54.059Z,101136.64
2017-11-07T06:54:25.633Z,101133.16
2017-11-07T06:56:57.010Z,101129.25
2017-11-07T06:59:28.542Z,101140.02
2017-11-07T07:02:00.187Z,101145.61
2017-11-07T07:04:31.492Z,101137.14
2017-11-07T07:07:02.962Z,101141.82
2017-11-07T07:09:34.575Z,101134.33
2017-11-07T07:14:32.920Z,101122.32
2017-11-07T07:17:04.844Z,101127.53
2017-11-07T07:19:36.387Z,101130.14
2017-11-07T07:22:08.080Z,101140.00
2017-11-07T07:24:39.426Z,101130.47
2017-11-07T07:27:10.755Z,101129.07
2017-11-07T07:29:42.398Z,101128.52
2017-11-07T07:32:13.771Z,101136.67
2017-11-07T07:34:45.233Z,101127.42
2017-11-07T07:37:16.891Z,101128.09
2017-11-07T07:39:48.365Z,101124.11
2017-11-07T07:42:20.184Z,101120.08
2017-11-07T07:44:51.836Z,101115.68
2017-11-07T07:47:23.164Z,101113.94
2017-11-07T07:49:54.796Z,101113.88
2017-11-07T07:52:26.234Z,101102.88
2017-11-07T07:54:57.558Z,101111.95
2017-11-07T07:57:28.898Z,101108.75
2017-11-07T08:00:00.219Z,101111.13
2017-11-07T08:02:31.893Z,101115.34
2017-11-07T08:05:04.233Z,101111.67
2017-11-07T08:07:35.639Z,101111.30
2017-11-07T08:10:07.264Z,101110.86
2017-11-07T08:12:38.622Z,101107.19
2017-11-07T08:15:10.050Z,101101.90
2017-11-07T08:17:41.717Z,101099.91
2017-11-07T08:20:13.617Z,101089.81
2017-11-07T08:22:45.585Z,101086.59
2017-11-07T08:25:16.894Z,101081.17
2017-11-07T08:27:48.301Z,101083.03
2017-11-07T08:30:20.853Z,101081.60
2017-11-07T08:32:52.710Z,101078.09
2017-11-07T08:35:24.434Z,101081.98
2017-11-07T08:37:55.833Z,101077.29
2017-11-07T08:40:28.384Z,101085.50
2017-11-07T08:42:59.860Z,101079.39
2017-11-07T08:45:31.386Z,101084.05
2017-11-07T08:48:04.539Z,101073.48
2017-11-07T08:50:35.894Z,101071.02
2017-11-07T08:53:07.534Z,101077.72
2017-11-07T08:55:39.004Z,101068.44
2017-11-07T08:58:10.370Z,101075.83
2017-11-07T09:00:42.007Z,101069.06
2017-11-07T09:03:13.355Z,101066.61
2017-11-07T09:05:44.705Z,101059.34
2017-11-07T09:08:16.376Z,101059.77
2017-11-07T09:10:47.742Z,101055.52
2017-11-07T09:13:19.381Z,101046.40
2017-11-07T09:15:50.997Z,101048.52
2017-11-07T09:18:22.566Z,101049.16
2017-11-07T09:20:54.345Z,101043.68
2017-11-07T09:23:25.744Z,101039.03
2017-11-07T09:25:57.038Z,101043.15
2017-11-07T09:28:28.696Z,101030.50
2017-11-07T09:31:01.867Z,101042.60
2017-11-07T09:33:33.544Z,101035.82
2017-11-07T09:36:06.452Z,101029.80
2017-11-07T09:38:37.795Z,101022.83
2017-11-07T09:41:09.378Z,101025.66
2017-11-07T09:43:40.720Z,101028.81
2017-11-07T09:46:12.669Z,101028.05
2017-11-07T09:48:43.978Z,101020.70
2017-11-07T09:51:15.308Z,101018.80
2017-11-07T09:53:46.916Z,101018.98
2017-11-07T09:56:18.230Z,101013.83
2017-11-07T09:58:49.729Z,101016.33
2017-11-07T10:01:21.454Z,101003.36
2017-11-07T10:03:52.824Z,100998.41
2017-11-07T10:06:24.470Z,101002.36
2017-11-07T10:08:56.295Z,100993.23
2017-11-07T10:11:27.610Z,101000.41
2017-11-07T10:13:59.263Z,101001.81
2017-11-07T10:16:30.600Z,100995.00
2017-11-07T10:19:02.529Z,100983.41
2017-11-07T10:21:34.194Z,100979.99
2017-11-07T10:24:06.811Z,100980.03
2017-11-07T10:26:38.437Z,100979.52
2017-11-07T10:29:09.971Z,100968.64
2017-11-07T10:31:41.288Z,100971.12
2017-11-07T10:34:12.944Z,100971.55
2017-11-07T10:36:44.317Z,100958.27
2017-11-07T10:39:15.672Z,100956.38
2017-11-07T10:41:47.295Z,100955.60
2017-11-07T10:44:18.661Z,100948.91
2017-11-07T10:46:50.219Z,100940.02
2017-11-07T10:49:21.868Z,100934.80
2017-11-07T10:51:53.367Z,100937.27
2017-11-07T10:54:24.732Z,100935.67
2017-11-07T10:56:57.157Z,100930.81
2017-11-07T10:59:28.495Z,100919.18
2017-11-07T11:02:00.096Z,100916.55
2017-11-07T11:04:31.439Z,100912.35
2017-11-07T11:07:03.840Z,100902.98
2017-11-07T11:09:35.548Z,100895.86
2017-11-07T11:12:07.016Z,100889.23
2017-11-07T11:14:38.443Z,100883.73
2017-11-07T11:17:10.016Z,100872.03
2017-11-07T11:19:41.340Z,100869.80
2017-11-07T11:22:12.921Z,100865.55
2017-11-07T11:24:44.291Z,100869.52
2017-11-07T11:27:15.651Z,100868.20
2017-11-07T11:29:47.458Z,100874.80
2017-11-07T11:32:18.793Z,100873.55
2017-11-07T11:34:50.336Z,100872.02
2017-11-07T11:37:21.964Z,100869.91
2017-11-07T11:39:54.405Z,100854.42
2017-11-07T11:42:25.995Z,100858.89
2017-11-07T11:44:57.302Z,100856.73
2017-11-07T11:47:28.600Z,100851.02
2017-11-07T11:50:00.255Z,100851.39
2017-11-07T11:52:31.622Z,100860.36
2017-11-07T11:55:04.153Z,100848.23
2017-11-07T11:57:35.905Z,100851.05
2017-11-07T12:00:07.776Z,100847.16
2017-11-07T12:02:39.150Z,100845.87
2017-11-07T12:05:11.021Z,100839.74
2017-11-07T12:07:42.563Z,100838.23
2017-11-07T12:10:13.985Z,100837.84
2017-11-07T12:12:45.833Z,100829.92
2017-11-07T12:15:17.181Z,100823.22
2017-11-07T12:17:48.771Z,100817.98
2017-11-07T12:20:20.202Z,100809.23
2017-11-07T12:22:51.865Z,100803.48
2017-11-07T12:25:23.536Z,100801.75
2017-11-07T12:27:56.429Z,100806.35
2017-11-07T12:30:28.049Z,100810.03
2017-11-07T12:32:59.950Z,100796.50
2017-11-07T12:35:31.338Z,100797.69
2017-11-07T12:38:04.908Z,100792.23
2017-11-07T12:40:36.663Z,100780.80
2017-11-07T12:43:07.999Z,100784.52
2017-11-07T12:45:39.686Z,100785.08
2017-11-07T12:48:10.997Z,100777.21
2017-11-07T12:52:00.027Z,100780.48
2017-11-07T12:54:31.400Z,100776.85
2017-11-07T12:57:05.487Z,100765.02
2017-11-07T12:59:37.202Z,100770.80
2017-11-07T13:02:08.796Z,100772.58
2017-11-07T13:04:40.440Z,100768.97
2017-11-07T13:07:12.396Z,100765.11
2017-11-07T13:09:43.986Z,100766.69
2017-11-07T13:12:15.316Z,100764.66
2017-11-07T13:14:46.672Z,100758.22
2017-11-07T13:17:18.164Z,100753.43
2017-11-07T13:19:49.471Z,100753.09
2017-11-07T13:22:21.200Z,100752.75
2017-11-07T13:24:53.449Z,100757.12
2017-11-07T13:27:25.066Z,100756.36
2017-11-07T13:29:56.383Z,100759.28
2017-11-07T13:32:27.717Z,100765.48
2017-11-07T13:34:59.500Z,100762.16
2017-11-07T13:37:30.813Z,100770.46
2017-11-07T13:40:04.239Z,100764.25
2017-11-07T13:42:36.013Z,100767.42
2017-11-07T13:45:07.332Z,100761.80
2017-11-07T13:47:38.634Z,100764.97
2017-11-07T13:50:09.919Z,100762.39
2017-11-07T13:52:41.398Z,100756.56
2017-11-07T13:55:12.790Z,100757.02
2017-11-07T13:57:44.936Z,100753.59
2017-11-07T14:00:16.269Z,100755.56
2017-11-07T14:02:47.861Z,100753.50
2017-11-07T14:05:19.162Z,100752.50
2017-11-07T14:07:50.605Z,100744.08
2017-11-07T14:10:22.205Z,100749.77
2017-11-07T14:12:53.565Z,100742.33
2017-11-07T14:15:24.888Z,100745.67
2017-11-07T14:17:56.743Z,100734.98
2017-11-07T14:20:28.110Z,100734.38
2017-11-07T14:22:59.748Z,100724.09
2017-11-07T14:25:31.061Z,100719.51
2017-11-07T14:28:03.478Z,100727.32
2017-11-07T14:30:35.101Z,100719.33
2017-11-07T14:33:06.494Z,100722.11
2017-11-07T14:35:37.860Z,100722.03
2017-11-07T14:38:10.445Z,100723.27
2017-11-07T14:40:41.734Z,100722.99
2017-11-07T14:43:13.606Z,100720.05
2017-11-07T14:45:44.967Z,100719.59
2017-11-07T14:48:16.329Z,100718.31
2017-11-07T14:50:48.166Z,100717.86
2017-11-07T14:53:19.512Z,100720.41
2017-11-07T14:55:50.944Z,100718.48
2017-11-07T14:58:22.543Z,100724.72
2017-11-07T15:00:53.926Z,100721.56
2017-11-07T15:03:25.256Z,100716.59
2017-11-07T15:05:56.966Z,100719.03
2017-11-07T15:08:28.636Z,100716.57
2017-11-07T15:10:59.966Z,100713.17
2017-11-07T15:13:31.580Z,100704.54
2017-11-07T15:16:06.284Z,100702.11
2017-11-07T15:18:37.593Z,100703.02
2017-11-07T15:21:08.933Z,100705.95
2017-11-07T15:23:40.291Z,100703.41
2017-11-07T15:26:12.059Z,100699.38
2017-11-07T15:28:43.421Z,100701.55
2017-11-07T15:31:15.949Z,100688.98
2017-11-07T15:33:47.333Z,100692.89
2017-11-07T15:36:18.659Z,100696.41
2017-11-07T15:38:50.776Z,100687.83
2017-11-07T15:41:22.398Z,100688.53
2017-11-07T15:43:54.336Z,100684.64
2017-11-07T15:46:26.214Z,100685.28
2017-11-07T15:48:57.785Z,100674.00
2017-11-07T15:51:29.485Z,100677.30
2017-11-07T15:54:00.996Z,100684.41
2017-11-07T15:56:32.395Z,100680.52
2017-11-07T15:59:04.965Z,100673.98
2017-11-07T16:01:36.366Z,100675.86
2017-11-07T16:04:08.132Z,100676.73
2017-11-07T16:06:39.467Z,100669.34
2017-11-07T16:09:10.809Z,100674.71
2017-11-07T16:11:42.442Z,100680.52
2017-11-07T16:14:13.794Z,100676.56
2017-11-07T16:16:45.185Z,100672.22
2017-11-07T16:19:16.843Z,100670.56
2017-11-07T16:21:48.193Z,100668.47
2017-11-07T16:24:19.517Z,100673.13
2017-11-07T16:26:50.976Z,100675.62
2017-11-07T16:29:22.556Z,100672.27
2017-11-07T16:31:53.872Z,100677.31
2017-11-07T16:34:25.211Z,100683.09
2017-11-07T16:36:56.581Z,100681.44
2017-11-07T16:39:27.911Z,100679.99
2017-11-07T16:41:59.535Z,100672.47
2017-11-07T16:44:30.845Z,100675.67
2017-11-07T16:47:02.722Z,100674.09
2017-11-07T16:49:36.740Z,100682.38
2017-11-07T16:52:08.063Z,100677.15
2017-11-07T16:54:39.710Z,100676.19
2017-11-07T16:57:11.028Z,100680.20
2017-11-07T16:59:42.356Z,100678.55
2017-11-07T17:02:14.014Z,100682.86
2017-11-07T17:04:45.370Z,100683.36
2017-11-07T17:07:16.696Z,100683.81
2017-11-07T17:09:48.333Z,100682.18
2017-11-07T17:12:20.033Z,100678.22
2017-11-07T17:14:51.860Z,100677.77
2017-11-07T17:17:23.196Z,100676.74
2017-11-07T17:19:54.528Z,100670.05
2017-11-07T17:22:26.109Z,100671.11
2017-11-07T17:24:57.447Z,100672.48
2017-11-07T17:27:28.813Z,100673.90
2017-11-07T17:30:00.429Z,100670.42
2017-11-07T17:32:32.876Z,100670.05
2017-11-07T17:35:05.268Z,100671.51
2017-11-07T17:37:36.880Z,100671.67
2017-11-07T17:40:08.241Z,100666.95
2017-11-07T17:42:39.672Z,100668.64
2017-11-07T17:45:11.299Z,100671.13
2017-11-07T17:47:42.800Z,100668.98
2017-11-07T17:50:14.176Z,100670.78
2017-11-07T17:52:45.856Z,100670.48
2017-11-07T17:55:17.340Z,100669.62
2017-11-07T17:57:48.950Z,100671.85
2017-11-07T18:00:21.092Z,100674.07
2017-11-07T18:02:53.869Z,100667.72
2017-11-07T18:05:25.324Z,100671.30
2017-11-07T18:07:58.009Z,100677.86
2017-11-07T18:10:29.628Z,100680.99
2017-11-07T18:13:01.233Z,100674.89
2017-11-07T18:15:32.871Z,100681.42
2017-11-07T18:18:05.591Z,100675.23
2017-11-07T18:20:37.578Z,100674.36
2017-11-07T18:23:09.204Z,100672.64
2017-11-07T18:25:40.627Z,100670.34
2017-11-07T18:28:12.704Z,100675.16
2017-11-07T18:30:44.301Z,100667.69
2017-11-07T18:33:15.840Z,100665.52
2017-11-07T18:35:47.656Z,100669.54
2017-11-07T18:38:19.743Z,100666.86
2017-11-07T18:40:51.950Z,100668.25
2017-11-07T18:43:23.652Z,100663.73
2017-11-07T18:45:55.190Z,100659.80
2017-11-07T18:48:26.645Z,100664.66
2017-11-07T18:50:58.353Z,100657.17
2017-11-07T18:53:29.734Z,100653.18
2017-11-07T18:56:01.388Z,100654.47
2017-11-07T18:58:33.000Z,100660.68
2017-11-07T19:01:06.911Z,100652.33
2017-11-07T19:03:38.547Z,100656.31
2017-11-07T19:06:10.331Z,100654.58
2017-11-07T19:08:41.827Z,100650.31
2017-11-07T19:11:13.496Z,100649.61
2017-11-07T19:13:44.918Z,100649.31
2017-11-07T19:16:16.673Z,100647.81
2017-11-07T19:18:48.477Z,100647.73
2017-11-07T19:21:20.088Z,100643.27
2017-11-07T19:23:51.563Z,100648.59
2017-11-07T19:26:22.886Z,100648.94
2017-11-07T19:28:55.034Z,100647.11
2017-11-07T19:31:26.380Z,100646.58
2017-11-07T19:33:57.795Z,100642.70
2017-11-07T19:36:29.401Z,100639.67
2017-11-07T19:39:01.093Z,100642.41
2017-11-07T19:41:32.651Z,100638.12
2017-11-07T19:44:06.804Z,100633.65
2017-11-07T19:46:38.160Z,100634.53
2017-11-07T19:49:09.822Z,100632.12
2017-11-07T19:51:41.181Z,100631.27
2017-11-07T19:54:12.513Z,100634.34
2017-11-07T19:56:44.145Z,100634.94
2017-11-07T19:59:15.456Z,100635.41
2017-11-07T20:01:46.904Z,100633.20
2017-11-07T20:04:18.549Z,100633.65
2017-11-07T20:06:50.416Z,100627.11
2017-11-07T20:12:03.067Z,100633.44
2017-11-07T20:14:39.801Z,100632.48
2017-11-07T20:17:11.647Z,100628.73
2017-11-07T20:19:42.995Z,100624.20
2017-11-07T20:22:14.631Z,100629.90
2017-11-07T20:24:46.014Z,100625.08
2017-11-07T20:27:17.729Z,100629.04
2017-11-07T20:29:50.616Z,100625.02
2017-11-07T20:32:21.950Z,100620.31
2017-11-07T20:34:54.877Z,100616.86
2017-11-07T20:37:26.490Z,100614.59
2017-11-07T20:39:58.225Z,100609.34
2017-11-07T20:42:29.688Z,100602.58
2017-11-07T20:45:01.423Z,100600.73
2017-11-07T20:47:33.205Z,100597.72
2017-11-07T20:50:05.670Z,100603.91
2017-11-07T20:52:37.265Z,100599.22
2017-11-07T20:55:08.595Z,100599.67
2017-11-07T20:57:39.974Z,100598.07
2017-11-07T21:00:11.644Z,100602.68
2017-11-07T21:02:42.981Z,100596.35
2017-11-07T21:05:14.989Z,100598.76
2017-11-07T21:07:46.593Z,100596.19
2017-11-07T21:10:17.912Z,100593.67
2017-11-07T21:12:49.654Z,100597.52
2017-11-07T21:15:21.026Z,100588.75
2017-11-07T21:17:52.518Z,100597.88
2017-11-07T21:20:25.895Z,100592.63
2017-11-07T21:22:57.995Z,100594.91
2017-11-07T21:25:29.604Z,100596.11
2017-11-07T21:28:02.676Z,100591.31
2017-11-07T21:30:33.992Z,100591.30
2017-11-07T21:33:06.388Z,100589.66
2017-11-07T21:35:37.668Z,100585.34
2017-11-07T21:38:08.976Z,100588.86
2017-11-07T21:40:40.593Z,100591.39
2017-11-07T21:43:12.039Z,100590.49
2017-11-07T21:45:43.335Z,100596.31
2017-11-07T21:48:15.636Z,100604.23
2017-11-07T21:50:46.922Z,100599.37
2017-11-07T21:53:18.260Z,100592.03
2017-11-07T21:55:49.692Z,100589.84
2017-11-07T21:58:21.048Z,100586.34
2017-11-07T22:00:52.796Z,100578.04
2017-11-07T22:03:24.122Z,100574.02
2017-11-07T22:05:55.749Z,100570.25
2017-11-07T22:08:27.043Z,100569.92
2017-11-07T22:10:58.499Z,100561.12
2017-11-07T22:13:30.177Z,100552.47
2017-11-07T22:16:02.786Z,100548.59
2017-11-07T22:18:34.378Z,100539.17
2017-11-07T22:21:05.874Z,100537.52
2017-11-07T22:23:42.985Z,100537.03
2017-11-07T22:26:14.675Z,100541.05
2017-11-07T22:28:46.021Z,100545.59
2017-11-07T22:31:17.418Z,100544.56
2017-11-07T22:33:48.904Z,100540.73
2017-11-07T22:36:20.242Z,100540.66
2017-11-07T22:38:52.760Z,100543.70
2017-11-07T22:41:24.067Z,100540.55
2017-11-07T22:43:55.491Z,100538.03
2017-11-07T22:46:26.824Z,100538.55
2017-11-07T22:48:58.329Z,100535.01
2017-11-07T22:51:30.037Z,100536.32
2017-11-07T22:54:02.557Z,100531.16
2017-11-07T22:56:33.874Z,100538.16
2017-11-07T22:59:05.550Z,100527.20
2017-11-07T23:01:36.857Z,100527.14
2017-11-07T23:04:08.453Z,100522.13
2017-11-07T23:06:39.792Z,100524.82
2017-11-07T23:09:11.217Z,100525.60
2017-11-07T23:11:42.792Z,100528.67
2017-11-07T23:14:14.283Z,100527.45
2017-11-07T23:16:45.573Z,100527.95
2017-11-07T23:19:17.260Z,100527.47
2017-11-07T23:21:48.665Z,100527.09
2017-11-07T23:24:20.269Z,100525.36
2017-11-07T23:26:51.677Z,100528.84
2017-11-07T23:29:23.188Z,100523.52
2017-11-07T23:31:54.782Z,100525.68
2017-11-07T23:34:26.099Z,100525.28
2017-11-07T23:36:57.931Z,100528.78
2017-11-07T23:39:29.417Z,100531.08
2017-11-07T23:42:01.117Z,100533.30
2017-11-07T23:44:32.727Z,100534.72
2017-11-07T23:47:04.913Z,100532.67
2017-11-07T23:49:36.576Z,100534.95
2017-11-07T23:52:09.241Z,100532.65
2017-11-07T23:54:40.545Z,100536.08
2017-11-07T23:57:12.663Z,100532.92
2017-11-07T23:59:43.992Z,100535.06
